Rapports des METAR proches

 

LFAQ - Bray, France
Distance from station: SSO 19km
Mise à jour: 06/04/2020 17:30
Couvert
Couvert
 Vent SSO
Vent: SSO 13 km/h
Température: 13°C
Point de rosée: 11°C
Humidité: 88%
Baromètre: 1022 hPa
Clouds: Couvert
Visibility: 10 km
Cloud details: Quelques nuages 396 m
Très nuageux 1219 m
Couvert 1433 m
2020/04/06 15:30 LFAQ 061530Z AUTO 21007KT 9999 FEW013 BKN040 OVC047 13/11 Q1022
LFQQ - Lille/Lesquin, France
Distance from station: NNE 53km
Mise à jour: 06/04/2020 17:30
Couvert
Couvert
 Vent SSO
Vent: SSO 15 km/h
Température: 13°C
Point de rosée: 10°C
Humidité: 82%
Baromètre: 1022 hPa
Clouds: Couvert
Visibility: 10 km
Cloud details: Quelques nuages 549 m
Très nuageux 884 m
Couvert 1067 m
2020/04/06 15:30 LFQQ 061530Z AUTO 21008KT 9999 FEW018 BKN029 OVC035 13/10 Q1022 TEMPO BKN012
EBCV - Chievres Ab, Belgium
Distance from station: NE 88km
Mise à jour: 06/04/2020 17:25
Couvert
Couvert
 Vent OSO
Vent: OSO 15 km/h
Température: 14°C
Point de rosée: 8°C
Humidité: 67%
Baromètre: 1022 hPa
Clouds: Couvert
Visibility: 10 km
Cloud details: Couvert 1951 m
2020/04/06 15:25 EBCV 061525Z AUTO 25008KT 9999 OVC064/// 14/08 Q1022 BLU
 
LFOB - Beauvais/Tille(A, France
Distance from station: SSO 88km
Mise à jour: 06/04/2020 17:30
Couvert
Couvert
 Vent SSE
Vent: SSE 7 km/h
Température: 13°C
Point de rosée: 11°C
Humidité: 88%
Baromètre: 1023 hPa
Clouds: Couvert
Visibility: 10 km
Cloud details: Couvert 305 m
2020/04/06 15:30 LFOB 061530Z AUTO 16004KT 100V190 9999 OVC010 13/11 Q1023
LFAT - Le Touquet/P. Pl, France
Distance from station: ONO 93km
Mise à jour: 06/04/2020 17:30
Quelques nuages
Quelques nuages
 Vent SO
Vent: SO 15 km/h
Température: 13°C
Point de rosée: 10°C
Humidité: 82%
Baromètre: 1022 hPa
Clouds: Quelques nuages
Visibility: 10 km
Cloud details: Quelques nuages 305 m
2020/04/06 15:30 LFAT 061530Z AUTO 23008KT 200V270 9999 FEW010 13/10 Q1022
EBFN - Koksijde (bel-Af, Belgium
Distance from station: N 105km
Mise à jour: 06/04/2020 17:33
Très nuageux
Très nuageux
 Vent SO
Vent: SO 24 km/h
Température: 15°C
Point de rosée: 10°C
Humidité: 72%
Baromètre: 1021 hPa
Clouds: Très nuageux
Visibility: 9 km
Cloud details: Partiellement nuageux 518 m
Très nuageux 1524 m
2020/04/06 15:33 EBFN 061533Z AUTO 23013KT 9000 SCT017/// BKN050/// 15/10 Q1021 WHT
 
EBOS - Oostende Airport, Belgium
Distance from station: N 119km
Mise à jour: 06/04/2020 17:50
Partiellement nuageux
Partiellement nuageux
 Vent SSO
Vent: SSO 24 km/h
Température: 14°C
Point de rosée: 11°C
Humidité: 82%
Baromètre: 1022 hPa
Clouds: Partiellement nuageux
Visibility: 10 km
Cloud details: Quelques nuages 488 m
Partiellement nuageux 1372 m
2020/04/06 15:50 EBOS 061550Z 21013KT 9999 FEW016 SCT045 14/11 Q1022 NOSIG
EBCI - Charleroi/Gossel, Belgium
Distance from station: ENE 124km
Mise à jour: 06/04/2020 17:50
Clair
Clair
 Vent O
Vent: O 20 km/h
Température: 16°C
Point de rosée: 4°C
Humidité: 45%
Baromètre: 1022 hPa
Résumé: Clair
Visibility: greater than 10 km
2020/04/06 15:50 EBCI 061550Z AUTO 26011KT 240V300 CAVOK 16/04 Q1022
LFPG - Charles De Gaull, France
Distance from station: S 125km
Mise à jour: 06/04/2020 17:30
Couvert
Couvert
 Vent SO
Vent: SO 13 km/h
Température: 13°C
Point de rosée: 11°C
Humidité: 88%
Baromètre: 1023 hPa
Clouds: Couvert
Visibility: 10 km
Cloud details: Très nuageux 244 m
Couvert 2256 m
2020/04/06 15:30 LFPG 061530Z AUTO 22007KT 190V290 9999 BKN008 OVC074 13/11 Q1023 TEMPO 3000 RADZ
 
LFPT - Cormeilles Vexin, France
Distance from station: SSO 127km
Mise à jour: 06/04/2020 17:30
Très nuageux
Très nuageux
 Vent S
Vent: S 11 km/h
Température: 13°C
Point de rosée: 10°C
Humidité: 82%
Baromètre: 1023 hPa
Clouds: Très nuageux
Visibility: 10 km
Cloud details: Très nuageux 305 m
Très nuageux 1707 m
Très nuageux 2316 m
2020/04/06 15:30 LFPT 061530Z AUTO 18006KT 9999 BKN010 BKN056 BKN076 13/10 Q1023
LFPB - Paris/Le Bourget, France
Distance from station: S 132km
Mise à jour: 06/04/2020 17:30
Couvert
Couvert
 Vent SSO
Vent: SSO 11 km/h
Température: 13°C
Point de rosée: 11°C
Humidité: 88%
Baromètre: 1023 hPa
Clouds: Couvert
Visibility: 10 km
Cloud details: Très nuageux 335 m
Couvert 2195 m
2020/04/06 15:30 LFPB 061530Z AUTO 21006KT 180V240 9999 BKN011 OVC072 13/11 Q1023
EBFS - Florennes (bel-A, Belgium
Distance from station: E 133km
Mise à jour: 06/04/2020 17:25
Très nuageux
Très nuageux
 Vent SO
Vent: SO 30 km/h
Température: 19°C
Point de rosée: 3°C
Humidité: 35%
Baromètre: 1022 hPa
Clouds: Très nuageux
Visibility: 10 km
Cloud details: Quelques nuages 2134 m
Très nuageux 2743 m
Très nuageux 6706 m
2020/04/06 15:25 EBFS 061525Z AUTO 22016KT 9999 FEW070/// BKN090/// BKN220/// 19/03 Q1022 BLU
 
LFQA - Reims/Prunay, France
Distance from station: SE 143km
Mise à jour: 06/04/2020 17:30
Clair
Clair
 Vent O
Vent: O 20 km/h
Température: 18°C
Point de rosée: 7°C
Humidité: 49%
Baromètre: 1022 hPa
Résumé: Clair
Visibility: greater than 10 km
2020/04/06 15:30 LFQA 061530Z AUTO 27011KT CAVOK 18/07 Q1022
LFOP - Rouen/Boos (aut), France
Distance from station: SO 144km
Mise à jour: 06/04/2020 17:30
Très nuageux
Très nuageux
 Vent varies
Vent: varies 4 km/h
Température: 16°C
Point de rosée: 9°C
Humidité: 63%
Baromètre: 1022 hPa
Clouds: Très nuageux
Visibility: 10 km
Cloud details: Partiellement nuageux 945 m
Très nuageux 1280 m
Très nuageux 1494 m
2020/04/06 15:30 LFOP 061530Z AUTO VRB02KT 9999 SCT031 BKN042 BKN049 16/09 Q1022
EBBR - Brussels Nationa, Belgium
Distance from station: NE 148km
Mise à jour: 06/04/2020 17:50
Clair
Clair
 Vent O
Vent: O 28 km/h
Température: 17°C
Point de rosée: 5°C
Humidité: 45%
Baromètre: 1022 hPa
Résumé: Clair
Visibility: greater than 10 km
2020/04/06 15:50 EBBR 061550Z 26015KT CAVOK 17/05 Q1022 NOSIG
 
EBBE - Beauvechain (baf, Belgium
Distance from station: ENE 156km
Mise à jour: 06/04/2020 17:25
Quelques nuages
Quelques nuages
 Vent SO
Vent: SO 28 km/h
Température: 21°C
Point de rosée: 5°C
Humidité: 35%
Baromètre: 1021 hPa
Clouds: Quelques nuages
Visibility: 10 km
Cloud details: Quelques nuages 2743 m
2020/04/06 15:25 EBBE 061525Z AUTO 23015KT 9999 FEW090/// 21/05 Q1021 BLU
EHFS - Vlissingen, Netherlands
Distance from station: NNE 157km
Mise à jour: 06/04/2020 17:25
Couvert
Couvert
 Vent SO
Vent: SO 20 km/h
Température: 13°C
Point de rosée: 9°C
Humidité: 77%
Baromètre: 1021 hPa
Clouds: Couvert
Visibility: 10 km
Cloud details: Couvert 975 m
2020/04/06 15:25 EHFS 061525Z AUTO 22011KT 9999 OVC032/// 13/09 Q1021
LFPV - Villacoublay/Vel, France
Distance from station: SSO 157km
Mise à jour: 06/04/2020 17:30
Couvert
Couvert
 Vent SO
Vent: SO 7 km/h
Température: 12°C
Point de rosée: 11°C
Humidité: 94%
Baromètre: 1023 hPa
Clouds: Couvert
Visibility: 10 km
Cloud details: Couvert 152 m
2020/04/06 15:30 LFPV 061530Z AUTO 22004KT 190V250 9999 OVC005 12/11 Q1023 TEMPO RA OVC005 SCT010TCU
 
EGMD - Lydd Airport, United Kingdom
Distance from station: NO 160km
Mise à jour: 06/04/2020 17:50
Clair
Clair
 Vent OSO
Vent: OSO 35 km/h
Température: 13°C
Point de rosée: 10°C
Humidité: 82%
Baromètre: 1021 hPa
Clouds: Clair
Visibility: 10 km
2020/04/06 15:50 EGMD 061550Z AUTO 24019KT 9999 NCD 13/10 Q1021